sensor_id;sensor_type;location;lat;lon;timestamp;temperature;humidity
12632;DHT22;6381;45.748;12.106;2024-03-22T04:41:59;11.50;99.90
12632;DHT22;6381;45.748;12.106;2024-03-22T04:44:27;11.50;99.90
12632;DHT22;6381;45.748;12.106;2024-03-22T04:46:56;11.50;99.90
12632;DHT22;6381;45.748;12.106;2024-03-22T04:49:23;11.50;99.90
12632;DHT22;6381;45.748;12.106;2024-03-22T04:51:53;11.50;99.90
12632;DHT22;6381;45.748;12.106;2024-03-22T04:54:21;11.40;99.90
12632;DHT22;6381;45.748;12.106;2024-03-22T04:56:50;11.50;99.90
12632;DHT22;6381;45.748;12.106;2024-03-22T04:59:19;11.60;99.90
12632;DHT22;6381;45.748;12.106;2024-03-22T05:01:48;11.60;99.90
12632;DHT22;6381;45.748;12.106;2024-03-22T05:04:15;11.70;99.90
12632;DHT22;6381;45.748;12.106;2024-03-22T05:06:43;11.70;99.90
12632;DHT22;6381;45.748;12.106;2024-03-22T05:09:11;11.60;99.90
12632;DHT22;6381;45.748;12.106;2024-03-22T05:11:39;11.70;99.90
12632;DHT22;6381;45.748;12.106;2024-03-22T05:14:07;11.70;99.90
12632;DHT22;6381;45.748;12.106;2024-03-22T05:16:37;11.80;99.90
12632;DHT22;6381;45.748;12.106;2024-03-22T05:19:04;11.80;99.90
12632;DHT22;6381;45.748;12.106;2024-03-22T05:21:33;11.80;99.90
12632;DHT22;6381;45.748;12.106;2024-03-22T05:24:00;12.00;99.90
12632;DHT22;6381;45.748;12.106;2024-03-22T05:26:29;12.10;99.90
12632;DHT22;6381;45.748;12.106;2024-03-22T05:28:58;12.00;99.90
12632;DHT22;6381;45.748;12.106;2024-03-22T05:31:27;12.10;99.90
12632;DHT22;6381;45.748;12.106;2024-03-22T05:33:56;12.10;99.90
12632;DHT22;6381;45.748;12.106;2024-03-22T05:36:24;12.00;99.90
12632;DHT22;6381;45.748;12.106;2024-03-22T05:38:52;12.10;99.90
12632;DHT22;6381;45.748;12.106;2024-03-22T05:41:20;12.00;99.90
12632;DHT22;6381;45.748;12.106;2024-03-22T05:43:47;12.10;99.90
12632;DHT22;6381;45.748;12.106;2024-03-22T05:46:16;12.10;99.90
12632;DHT22;6381;45.748;12.106;2024-03-22T05:48:43;12.10;99.90
12632;DHT22;6381;45.748;12.106;2024-03-22T05:51:13;12.20;99.90
12632;DHT22;6381;45.748;12.106;2024-03-22T05:53:41;12.20;99.90
12632;DHT22;6381;45.748;12.106;2024-03-22T05:56:09;12.40;99.90
12632;DHT22;6381;45.748;12.106;2024-03-22T05:58:36;12.50;99.80
12632;DHT22;6381;45.748;12.106;2024-03-22T06:01:06;12.40;99.30
12632;DHT22;6381;45.748;12.106;2024-03-22T06:03:33;12.40;99.00
12632;DHT22;6381;45.748;12.106;2024-03-22T06:06:02;12.50;98.70
12632;DHT22;6381;45.748;12.106;2024-03-22T06:08:31;12.50;98.50
12632;DHT22;6381;45.748;12.106;2024-03-22T06:11:01;12.70;98.00
12632;DHT22;6381;45.748;12.106;2024-03-22T06:13:28;12.70;97.30
12632;DHT22;6381;45.748;12.106;2024-03-22T06:15:58;12.70;97.20
12632;DHT22;6381;45.748;12.106;2024-03-22T06:18:26;12.80;97.10
12632;DHT22;6381;45.748;12.106;2024-03-22T06:20:54;12.80;97.00
12632;DHT22;6381;45.748;12.106;2024-03-22T06:23:22;13.00;96.80
12632;DHT22;6381;45.748;12.106;2024-03-22T06:25:55;13.00;96.80
12632;DHT22;6381;45.748;12.106;2024-03-22T06:28:23;13.10;96.40
12632;DHT22;6381;45.748;12.106;2024-03-22T06:30:52;13.20;96.00
12632;DHT22;6381;45.748;12.106;2024-03-22T06:33:19;13.20;95.70
12632;DHT22;6381;45.748;12.106;2024-03-22T06:35:48;13.30;94.80
12632;DHT22;6381;45.748;12.106;2024-03-22T06:38:15;13.50;94.10
12632;DHT22;6381;45.748;12.106;2024-03-22T06:40:44;13.40;93.60
12632;DHT22;6381;45.748;12.106;2024-03-22T06:43:13;13.60;93.60
12632;DHT22;6381;45.748;12.106;2024-03-22T06:45:42;13.70;92.30
12632;DHT22;6381;45.748;12.106;2024-03-22T06:48:09;13.70;91.60
12632;DHT22;6381;45.748;12.106;2024-03-22T06:50:37;13.90;91.20
12632;DHT22;6381;45.748;12.106;2024-03-22T06:53:05;13.90;90.20
12632;DHT22;6381;45.748;12.106;2024-03-22T06:55:33;14.10;89.10
12632;DHT22;6381;45.748;12.106;2024-03-22T06:58:01;14.10;87.90
12632;DHT22;6381;45.748;12.106;2024-03-22T07:00:31;14.20;86.50
12632;DHT22;6381;45.748;12.106;2024-03-22T07:03:01;14.30;85.50
12632;DHT22;6381;45.748;12.106;2024-03-22T07:05:30;14.30;85.00
12632;DHT22;6381;45.748;12.106;2024-03-22T07:07:57;14.50;83.50
12632;DHT22;6381;45.748;12.106;2024-03-22T07:10:26;14.50;80.60
12632;DHT22;6381;45.748;12.106;2024-03-22T07:12:55;14.70;80.10
12632;DHT22;6381;45.748;12.106;2024-03-22T07:15:23;14.70;78.60
12632;DHT22;6381;45.748;12.106;2024-03-22T07:17:52;15.00;75.80
12632;DHT22;6381;45.748;12.106;2024-03-22T07:20:21;15.00;73.30
12632;DHT22;6381;45.748;12.106;2024-03-22T07:22:48;15.10;72.10
12632;DHT22;6381;45.748;12.106;2024-03-22T07:25:16;15.20;70.90
12632;DHT22;6381;45.748;12.106;2024-03-22T07:27:44;15.30;69.20
12632;DHT22;6381;45.748;12.106;2024-03-22T07:30:13;15.40;69.50
12632;DHT22;6381;45.748;12.106;2024-03-22T07:32:40;15.50;70.20
12632;DHT22;6381;45.748;12.106;2024-03-22T07:35:10;15.60;67.30
12632;DHT22;6381;45.748;12.106;2024-03-22T07:37:38;15.70;65.00
12632;DHT22;6381;45.748;12.106;2024-03-22T07:40:07;15.80;61.30
12632;DHT22;6381;45.748;12.106;2024-03-22T07:42:35;15.90;59.20
12632;DHT22;6381;45.748;12.106;2024-03-22T07:45:03;15.90;57.90
12632;DHT22;6381;45.748;12.106;2024-03-22T07:47:31;16.10;56.40
12632;DHT22;6381;45.748;12.106;2024-03-22T07:49:58;16.20;55.40
12632;DHT22;6381;45.748;12.106;2024-03-22T07:52:29;16.30;53.30
12632;DHT22;6381;45.748;12.106;2024-03-22T07:54:56;16.50;53.90
12632;DHT22;6381;45.748;12.106;2024-03-22T07:57:24;16.50;53.80
12632;DHT22;6381;45.748;12.106;2024-03-22T07:59:51;16.60;48.50
12632;DHT22;6381;45.748;12.106;2024-03-22T08:02:20;16.60;51.00
12632;DHT22;6381;45.748;12.106;2024-03-22T08:04:48;16.70;51.40
12632;DHT22;6381;45.748;12.106;2024-03-22T08:07:16;16.70;51.40
12632;DHT22;6381;45.748;12.106;2024-03-22T08:09:45;16.80;51.00
12632;DHT22;6381;45.748;12.106;2024-03-22T08:12:14;17.10;49.80
12632;DHT22;6381;45.748;12.106;2024-03-22T08:14:41;17.00;43.10
12632;DHT22;6381;45.748;12.106;2024-03-22T08:17:09;17.00;42.00
12632;DHT22;6381;45.748;12.106;2024-03-22T08:19:37;17.10;38.90
12632;DHT22;6381;45.748;12.106;2024-03-22T08:22:06;17.20;38.30
12632;DHT22;6381;45.748;12.106;2024-03-22T08:24:33;17.20;37.60
12632;DHT22;6381;45.748;12.106;2024-03-22T08:27:03;17.20;33.50
12632;DHT22;6381;45.748;12.106;2024-03-22T08:29:30;17.10;33.10
12632;DHT22;6381;45.748;12.106;2024-03-22T08:31:59;17.20;33.00
12632;DHT22;6381;45.748;12.106;2024-03-22T08:34:26;17.30;32.90
12632;DHT22;6381;45.748;12.106;2024-03-22T08:36:55;17.50;35.20
12632;DHT22;6381;45.748;12.106;2024-03-22T08:39:22;17.70;34.30
12632;DHT22;6381;45.748;12.106;2024-03-22T08:41:51;17.60;32.70
12632;DHT22;6381;45.748;12.106;2024-03-22T08:44:20;17.70;29.80
12632;DHT22;6381;45.748;12.106;2024-03-22T08:46:49;17.70;28.40
12632;DHT22;6381;45.748;12.106;2024-03-22T08:49:16;17.70;28.30
12632;DHT22;6381;45.748;12.106;2024-03-22T08:51:46;17.80;29.20
12632;DHT22;6381;45.748;12.106;2024-03-22T08:54:15;17.90;27.80
12632;DHT22;6381;45.748;12.106;2024-03-22T08:56:43;17.80;26.50
12632;DHT22;6381;45.748;12.106;2024-03-22T08:59:11;17.90;26.40
12632;DHT22;6381;45.748;12.106;2024-03-22T09:01:40;17.90;26.70
12632;DHT22;6381;45.748;12.106;2024-03-22T09:04:08;18.10;28.40
12632;DHT22;6381;45.748;12.106;2024-03-22T09:06:36;18.00;25.80
12632;DHT22;6381;45.748;12.106;2024-03-22T09:09:03;18.30;25.80
12632;DHT22;6381;45.748;12.106;2024-03-22T09:11:33;18.10;25.50
12632;DHT22;6381;45.748;12.106;2024-03-22T09:14:00;18.10;27.60
12632;DHT22;6381;45.748;12.106;2024-03-22T09:16:28;18.10;30.20
12632;DHT22;6381;45.748;12.106;2024-03-22T09:18:57;18.00;32.70
12632;DHT22;6381;45.748;12.106;2024-03-22T09:23:53;18.60;30.80
12632;DHT22;6381;45.748;12.106;2024-03-22T09:26:21;18.50;30.60
12632;DHT22;6381;45.748;12.106;2024-03-22T09:28:49;18.50;31.20
12632;DHT22;6381;45.748;12.106;2024-03-22T10:35:40;19.50;16.20
12632;DHT22;6381;45.748;12.106;2024-03-22T10:38:09;19.40;16.60
12632;DHT22;6381;45.748;12.106;2024-03-22T17:31:56;18.80;17.20
12632;DHT22;6381;45.748;12.106;2024-03-22T17:34:25;18.70;18.20
12632;DHT22;6381;45.748;12.106;2024-03-22T17:39:22;18.60;24.50
